Time;durP1;ratioP1;P1;durP2;ratioP2;P2;SDS_P1;SDS_P2;PMS_P1;PMS_P2;Temp;Humidity;BMP_temperature;BMP_pressure;BME280_temperature;BME280_humidity;BME280_pressure;Samples;Min_cycle;Max_cycle;Signal;HPM_P1;HPM_P2
2023/02/20 00:01:02;;;;;;;;;;;;;;;5.77;100.00;99441.81;5012888;28;19925;-59
2023/02/20 00:03:29;;;;;;;;;;;;;;;5.41;100.00;99434.53;5009572;28;19936;-59
2023/02/20 00:05:55;;;;;;;;;;;;;;;5.22;100.00;99428.31;5001433;28;20150;-59
2023/02/20 00:08:22;;;;;;;;;;;;;;;4.92;100.00;99438.84;5014236;28;20303;-60
2023/02/20 00:10:48;;;;;;;;;;;;;;;4.78;100.00;99429.31;5020459;28;19925;-62
2023/02/20 00:13:13;;;;;;;;;;;;;;;4.64;100.00;99425.66;5018280;28;20352;-59
2023/02/20 00:15:39;;;;;;;;;;;;;;;4.58;100.00;99442.50;5014522;28;19990;-59
2023/02/20 00:18:05;;;;;;;;;;;;;;;4.54;100.00;99443.28;5019195;28;19929;-58
2023/02/20 00:20:32;;;;;;;;;;;;;;;4.50;100.00;99438.97;5038994;28;20226;-59
2023/02/20 00:22:57;;;;;;;;;;;;;;;4.53;100.00;99443.25;5019877;28;20281;-59
2023/02/20 00:25:23;;;;;;;;;;;;;;;4.50;100.00;99448.25;5019641;28;19929;-60
2023/02/20 00:27:48;;;;;;;;;;;;;;;4.49;100.00;99449.97;5017778;28;19933;-59
2023/02/20 00:30:15;;;;;;;;;;;;;;;4.46;100.00;99446.50;5019955;28;20436;-59
2023/02/20 00:32:41;;;;;;;;;;;;;;;4.45;100.00;99445.66;5017818;28;20350;-63
2023/02/20 00:35:08;;;;;;;;;;;;;;;4.51;100.00;99450.84;5000349;28;19968;-59
2023/02/20 00:37:33;;;;;;;;;;;;;;;4.45;100.00;99447.34;5017577;28;19929;-59
2023/02/20 00:39:58;;;;;;;;;;;;;;;4.47;100.00;99459.22;5016756;28;20521;-60
2023/02/20 00:42:24;;;;;;;;;;;;;;;4.43;100.00;99451.53;5015871;28;19929;-60
2023/02/20 00:44:49;;;;;;;;;;;;;;;4.50;100.00;99458.41;5014841;28;20439;-59
2023/02/20 00:47:15;;;;;;;;;;;;;;;4.43;100.00;99459.13;5004108;28;19933;-59
2023/02/20 00:49:40;;;;;;;;;;;;;;;4.40;100.00;99461.63;5019046;28;20361;-59
2023/02/20 00:52:07;;;;;;;;;;;;;;;4.39;100.00;99470.94;5017495;28;20024;-58
2023/02/20 00:54:34;;;;;;;;;;;;;;;4.39;100.00;99467.53;4996079;28;20618;-58
2023/02/20 00:56:59;;;;;;;;;;;;;;;4.43;100.00;99462.53;5016484;28;20310;-61
2023/02/20 00:59:25;;;;;;;;;;;;;;;4.38;100.00;99473.44;5016616;28;20478;-60
2023/02/20 01:01:51;;;;;;;;;;;;;;;4.41;100.00;99471.78;5005642;28;20052;-58
2023/02/20 01:04:17;;;;;;;;;;;;;;;4.42;100.00;99463.34;5013852;28;19955;-60
2023/02/20 01:06:43;;;;;;;;;;;;;;;4.41;100.00;99465.88;5015272;28;20183;-64
2023/02/20 01:09:10;;;;;;;;;;;;;;;4.36;100.00;99470.03;4998158;28;19945;-59
2023/02/20 01:11:36;;;;;;;;;;;;;;;4.35;100.00;99475.91;5012974;28;19936;-58
2023/02/20 01:14:01;;;;;;;;;;;;;;;4.37;100.00;99464.13;5017450;28;19999;-59
2023/02/20 01:16:28;;;;;;;;;;;;;;;4.31;100.00;99457.25;5010746;28;20306;-59
2023/02/20 01:18:54;;;;;;;;;;;;;;;4.35;100.00;99459.00;5001463;28;19929;-59
2023/02/20 01:21:19;;;;;;;;;;;;;;;4.28;100.00;99457.19;5019528;28;20399;-61
2023/02/20 01:23:45;;;;;;;;;;;;;;;4.21;100.00;99454.47;5004185;28;19940;-59
2023/02/20 01:26:11;;;;;;;;;;;;;;;4.18;100.00;99462.03;5004805;28;19929;-59
2023/02/20 01:28:37;;;;;;;;;;;;;;;4.22;100.00;99463.81;5002752;28;19932;-60
2023/02/20 01:31:02;;;;;;;;;;;;;;;4.18;100.00;99465.44;5017356;28;19929;-59
2023/02/20 01:33:31;;;;;;;;;;;;;;;4.17;100.00;99467.94;5019222;28;20817;-60
2023/02/20 01:35:56;;;;;;;;;;;;;;;4.16;100.00;99472.16;5017182;28;19931;-60
2023/02/20 01:38:22;;;;;;;;;;;;;;;4.17;100.00;99467.94;5019053;28;19925;-60
2023/02/20 01:40:48;;;;;;;;;;;;;;;4.12;100.00;99470.38;5006599;28;20419;-59
2023/02/20 01:43:15;;;;;;;;;;;;;;;4.09;100.00;99476.25;5037727;28;19928;-59
2023/02/20 01:45:41;;;;;;;;;;;;;;;4.05;100.00;99468.56;5003144;28;19925;-60
2023/02/20 01:48:15;;;;;;;;;;;;;;;4.02;100.00;99473.56;5021686;28;19924;-60
2023/02/20 01:50:41;;;;;;;;;;;;;;;4.03;100.00;99475.28;5022834;28;19925;-60
2023/02/20 01:53:10;;;;;;;;;;;;;;;4.02;100.00;99471.03;5004731;28;19929;-59
2023/02/20 01:55:42;;;;;;;;;;;;;;;3.97;100.00;99475.16;5022553;28;20000;-59
2023/02/20 01:58:09;;;;;;;;;;;;;;;4.04;100.00;99484.59;5038525;28;19947;-59
2023/02/20 02:00:37;;;;;;;;;;;;;;;4.07;100.00;99482.13;5023377;28;20313;-60
2023/02/20 02:03:08;;;;;;;;;;;;;;;4.10;100.00;99483.06;5024109;28;19971;-59
2023/02/20 02:05:36;;;;;;;;;;;;;;;4.08;100.00;99491.44;5023750;28;20430;-60
2023/02/20 02:08:03;;;;;;;;;;;;;;;4.09;100.00;99494.03;5021066;28;20480;-60
2023/02/20 02:10:36;;;;;;;;;;;;;;;4.00;100.00;99492.97;5023509;28;19925;-60
2023/02/20 02:13:02;;;;;;;;;;;;;;;3.99;100.00;99493.78;5021223;28;20016;-59
2023/02/20 02:15:28;;;;;;;;;;;;;;;3.97;100.00;99492.91;5022081;28;19959;-59
2023/02/20 02:18:05;;;;;;;;;;;;;;;3.93;100.00;99486.91;5020430;28;20001;-60
2023/02/20 02:20:34;;;;;;;;;;;;;;;3.77;100.00;99481.50;5036855;28;19924;-60
2023/02/20 02:23:18;;;;;;;;;;;;;;;3.83;100.00;99481.59;5021326;28;20387;-59
2023/02/20 02:26:07;;;;;;;;;;;;;;;3.70;100.00;99475.41;5034681;28;19935;-60
2023/02/20 02:28:53;;;;;;;;;;;;;;;3.67;100.00;99478.75;5020351;28;20498;-60
2023/02/20 02:31:37;;;;;;;;;;;;;;;3.72;100.00;99475.47;5007385;28;19925;-59
2023/02/20 02:34:23;;;;;;;;;;;;;;;3.71;100.00;99474.59;5035758;28;19931;-59
2023/02/20 02:36:55;;;;;;;;;;;;;;;3.57;100.00;99483.56;5019705;28;20028;-59
2023/02/20 02:39:24;;;;;;;;;;;;;;;3.68;100.00;99472.00;5017106;28;20284;-59
2023/02/20 02:41:53;;;;;;;;;;;;;;;3.71;100.00;99484.75;5017099;28;19925;-58
2023/02/20 02:44:30;;;;;;;;;;;;;;;3.58;100.00;99491.22;5004331;28;19937;-59
2023/02/20 02:46:57;;;;;;;;;;;;;;;3.61;100.00;99490.41;5022766;28;20375;-59
2023/02/20 02:49:48;;;;;;;;;;;;;;;3.57;100.00;99503.84;5013663;28;19983;-58
2023/02/20 02:52:37;;;;;;;;;;;;;;;3.56;100.00;99497.09;5020077;28;19967;-59
2023/02/20 02:55:00;;;;;;;;;;;;;;;3.52;100.00;99498.66;5019045;28;20079;-59
2023/02/20 02:57:27;;;;;;;;;;;;;;;3.58;100.00;99497.97;5008417;28;20834;-60
2023/02/20 02:59:58;;;;;;;;;;;;;;;3.56;100.00;99514.84;5019447;28;20462;-60
2023/02/20 03:02:26;;;;;;;;;;;;;;;3.52;100.00;99502.91;5019046;28;20556;-60
2023/02/20 03:04:53;;;;;;;;;;;;;;;3.62;100.00;99498.06;5020605;28;20609;-59
2023/02/20 03:07:19;;;;;;;;;;;;;;;3.48;100.00;99507.03;5020669;28;20007;-59
2023/02/20 03:09:51;;;;;;;;;;;;;;;3.49;100.00;99492.69;5001311;28;20431;-59
2023/02/20 03:12:17;;;;;;;;;;;;;;;3.58;100.00;99501.34;5017406;28;20538;-58
2023/02/20 03:17:49;;;;;;;;;;;;;;;3.59;100.00;99492.94;5035016;28;19967;-58
2023/02/20 03:20:19;;;;;;;;;;;;;;;3.58;100.00;99486.16;5002781;28;20024;-59
2023/02/20 03:22:49;;;;;;;;;;;;;;;3.59;100.00;99482.81;5021906;28;19924;-59
2023/02/20 03:25:22;;;;;;;;;;;;;;;3.66;100.00;99473.63;5020467;28;20011;-59
2023/02/20 03:27:49;;;;;;;;;;;;;;;3.65;100.00;99482.91;5020385;28;19925;-59
2023/02/20 03:30:20;;;;;;;;;;;;;;;3.65;100.00;99467.69;5021869;28;19925;-59
2023/02/20 03:43:51;;;;;;;;;;;;;;;3.56;100.00;99462.47;5004353;28;19933;-58
2023/02/20 03:46:21;;;;;;;;;;;;;;;3.51;100.00;99468.25;5003757;28;19971;-59
2023/02/20 03:48:50;;;;;;;;;;;;;;;3.60;100.00;99464.25;5019717;28;19925;-59
2023/02/20 03:51:16;;;;;;;;;;;;;;;3.51;100.00;99475.84;5037647;28;19929;-59
2023/02/20 03:53:53;;;;;;;;;;;;;;;3.50;100.00;99476.66;5037467;28;19941;-59
2023/02/20 03:56:26;;;;;;;;;;;;;;;3.53;100.00;99456.44;5002497;28;20020;-60
2023/02/20 03:58:55;;;;;;;;;;;;;;;3.62;100.00;99461.72;5021533;28;20251;-59
2023/02/20 04:01:21;;;;;;;;;;;;;;;3.54;100.00;99476.75;5021059;28;19925;-59
2023/02/20 04:03:48;;;;;;;;;;;;;;;3.58;100.00;99470.94;5004529;28;20008;-58
2023/02/20 04:06:16;;;;;;;;;;;;;;;3.64;100.00;99480.38;5017908;28;19967;-59
2023/02/20 04:08:51;;;;;;;;;;;;;;;3.99;100.00;99470.94;5004027;28;19949;-59
2023/02/20 04:11:21;;;;;;;;;;;;;;;3.96;100.00;99466.69;5001161;28;20250;-58
2023/02/20 04:13:49;;;;;;;;;;;;;;;4.36;100.00;99467.47;5005328;28;19929;-59
2023/02/20 04:16:15;;;;;;;;;;;;;;;4.17;100.00;99478.09;5033759;28;19929;-58
2023/02/20 04:18:41;;;;;;;;;;;;;;;4.07;100.00;99477.88;5020706;28;19925;-62
2023/02/20 04:21:11;;;;;;;;;;;;;;;4.28;100.00;99472.41;5005904;28;19932;-59
2023/02/20 04:23:41;;;;;;;;;;;;;;;4.69;100.00;99459.63;5018770;28;20384;-60
2023/02/20 04:26:11;;;;;;;;;;;;;;;5.26;100.00;99455.47;5002962;28;19933;-58
2023/02/20 04:28:39;;;;;;;;;;;;;;;4.92;100.00;99448.19;5012421;28;19925;-60
2023/02/20 04:31:06;;;;;;;;;;;;;;;4.62;100.00;99443.44;4996491;28;19929;-60
2023/02/20 04:33:34;;;;;;;;;;;;;;;4.51;100.00;99440.69;4986396;28;20368;-61
2023/02/20 04:36:05;;;;;;;;;;;;;;;4.52;100.00;99428.84;5012252;28;19929;-60
2023/02/20 04:38:30;;;;;;;;;;;;;;;4.51;100.00;99427.13;5034953;28;19936;-59
2023/02/20 04:40:57;;;;;;;;;;;;;;;4.78;100.00;99419.13;4989366;28;20288;-61
2023/02/20 04:43:23;;;;;;;;;;;;;;;4.58;100.00;99417.09;5001873;28;19929;-58
2023/02/20 04:45:49;;;;;;;;;;;;;;;4.39;100.00;99411.69;5034506;28;19929;-61
2023/02/20 04:48:16;;;;;;;;;;;;;;;4.43;100.00;99398.22;5006868;28;20417;-60
2023/02/20 04:50:42;;;;;;;;;;;;;;;4.55;100.00;99389.13;4990109;28;19929;-60
2023/02/20 04:53:08;;;;;;;;;;;;;;;4.38;100.00;99408.28;5004225;28;20383;-59
2023/02/20 04:55:34;;;;;;;;;;;;;;;4.87;100.00;99404.91;5021526;28;20076;-60
2023/02/20 04:58:05;;;;;;;;;;;;;;;4.55;100.00;99411.97;5019539;28;19969;-59
2023/02/20 05:00:43;;;;;;;;;;;;;;;4.88;100.00;99426.09;5004892;28;20051;-60
2023/02/20 05:03:08;;;;;;;;;;;;;;;4.61;100.00;99418.84;5018488;28;19956;-60
2023/02/20 05:05:34;;;;;;;;;;;;;;;4.42;100.00;99425.28;5019090;28;19929;-60
2023/02/20 05:08:01;;;;;;;;;;;;;;;4.27;100.00;99434.31;5019272;28;19929;-60
2023/02/20 05:10:27;;;;;;;;;;;;;;;4.20;100.00;99419.81;5018543;28;20079;-60
2023/02/20 05:12:53;;;;;;;;;;;;;;;4.03;100.00;99432.16;5017960;28;19932;-60
2023/02/20 05:15:18;;;;;;;;;;;;;;;4.00;100.00;99437.16;5006069;28;19930;-59
2023/02/20 05:17:44;;;;;;;;;;;;;;;4.03;100.00;99437.25;5008350;28;19932;-59
2023/02/20 05:20:10;;;;;;;;;;;;;;;3.99;100.00;99428.69;5022177;28;20016;-59
2023/02/20 05:22:35;;;;;;;;;;;;;;;3.96;100.00;99433.72;5022065;28;19936;-60
2023/02/20 05:25:01;;;;;;;;;;;;;;;3.93;100.00;99415.91;5023952;28;19934;-63
2023/02/20 05:27:27;;;;;;;;;;;;;;;3.88;100.00;99420.00;5024318;28;19983;-60
2023/02/20 05:29:54;;;;;;;;;;;;;;;3.83;100.00;99424.13;5023908;28;19932;-60
2023/02/20 05:32:20;;;;;;;;;;;;;;;3.85;100.00;99414.88;5022694;28;19925;-60
2023/02/20 05:34:45;;;;;;;;;;;;;;;3.75;100.00;99407.91;5021592;28;19925;-61
2023/02/20 05:37:12;;;;;;;;;;;;;;;3.83;100.00;99418.19;5023658;28;19933;-61
2023/02/20 05:39:38;;;;;;;;;;;;;;;3.83;100.00;99408.91;5022269;28;19928;-61
2023/02/20 05:42:05;;;;;;;;;;;;;;;3.80;100.00;99410.53;5021020;28;19936;-60
2023/02/20 05:44:31;;;;;;;;;;;;;;;3.80;100.00;99408.00;5021054;28;19936;-59
2023/02/20 05:46:57;;;;;;;;;;;;;;;3.73;100.00;99414.66;5022020;28;20448;-60
2023/02/20 05:49:22;;;;;;;;;;;;;;;3.75;100.00;99417.19;5020974;28;20424;-60
2023/02/20 05:51:51;;;;;;;;;;;;;;;3.77;100.00;99405.41;5023549;28;20269;-59
2023/02/20 05:54:18;;;;;;;;;;;;;;;3.67;100.00;99410.28;5019329;28;19952;-60
2023/02/20 05:56:44;;;;;;;;;;;;;;;3.74;100.00;99415.47;5021161;28;20035;-60
2023/02/20 05:59:10;;;;;;;;;;;;;;;3.72;100.00;99410.38;5021166;28;19964;-60
2023/02/20 06:01:35;;;;;;;;;;;;;;;3.66;100.00;99418.72;5023046;28;19964;-60
2023/02/20 06:04:01;;;;;;;;;;;;;;;3.65;100.00;99417.00;5023846;28;20089;-59
2023/02/20 06:06:31;;;;;;;;;;;;;;;3.65;100.00;99416.13;5008015;28;19925;-59
2023/02/20 06:08:56;;;;;;;;;;;;;;;3.63;100.00;99417.81;5020679;28;19972;-58
2023/02/20 06:11:22;;;;;;;;;;;;;;;3.67;100.00;99424.66;5020616;28;20392;-62
2023/02/20 06:13:47;;;;;;;;;;;;;;;3.66;100.00;99412.78;5018624;28;19940;-59
2023/02/20 06:16:20;;;;;;;;;;;;;;;3.78;100.00;99424.88;5022822;28;19928;-58
2023/02/20 06:18:45;;;;;;;;;;;;;;;3.73;100.00;99434.06;5003405;28;20007;-58
2023/02/20 06:21:11;;;;;;;;;;;;;;;3.76;100.00;99434.13;5020278;28;19929;-59
2023/02/20 06:23:37;;;;;;;;;;;;;;;3.71;100.00;99443.31;5017615;28;19975;-59
2023/02/20 06:26:03;;;;;;;;;;;;;;;3.77;100.00;99439.25;5018327;28;19928;-60
2023/02/20 06:28:28;;;;;;;;;;;;;;;3.74;100.00;99456.03;5020622;28;19925;-59
2023/02/20 06:30:54;;;;;;;;;;;;;;;4.09;100.00;99435.66;5022831;28;20032;-58
2023/02/20 06:33:20;;;;;;;;;;;;;;;4.24;100.00;99437.66;5020673;28;20064;-59
2023/02/20 06:35:45;;;;;;;;;;;;;;;4.25;100.00;99424.13;5025328;28;19995;-59
2023/02/20 06:38:10;;;;;;;;;;;;;;;4.39;100.00;99426.91;5007065;28;20444;-71
2023/02/20 06:40:37;;;;;;;;;;;;;;;4.44;100.00;99433.78;5023684;28;19929;-59
2023/02/20 06:43:02;;;;;;;;;;;;;;;4.68;100.00;99429.97;5020646;28;20268;-59
2023/02/20 06:45:28;;;;;;;;;;;;;;;5.35;100.00;99422.56;5020614;28;19929;-59
2023/02/20 06:47:53;;;;;;;;;;;;;;;6.08;100.00;99431.19;5019384;28;19941;-57
2023/02/20 06:50:19;;;;;;;;;;;;;;;7.06;100.00;99416.00;5018904;28;20055;-59
2023/02/20 06:52:44;;;;;;;;;;;;;;;7.72;100.00;99414.75;5018520;28;19977;-58
2023/02/20 06:55:10;;;;;;;;;;;;;;;8.15;100.00;99418.31;5021214;28;19936;-58
2023/02/20 06:57:35;;;;;;;;;;;;;;;8.23;100.00;99429.44;5018369;28;19972;-56
2023/02/20 07:00:00;;;;;;;;;;;;;;;8.33;100.00;99420.94;5017199;28;19932;-57
2023/02/20 07:02:26;;;;;;;;;;;;;;;8.45;100.00;99432.91;5018599;28;20040;-58
2023/02/20 07:04:51;;;;;;;;;;;;;;;8.09;100.00;99444.69;5019074;28;20459;-59
2023/02/20 07:07:17;;;;;;;;;;;;;;;7.26;100.00;99444.19;5018195;28;20011;-60
2023/02/20 07:09:42;;;;;;;;;;;;;;;6.55;100.00;99441.91;5018152;28;19929;-57
2023/02/20 07:12:08;;;;;;;;;;;;;;;6.37;100.00;99441.69;5018134;28;19936;-59
2023/02/20 07:14:33;;;;;;;;;;;;;;;6.22;100.00;99439.84;5017342;28;19929;-59
2023/02/20 07:16:59;;;;;;;;;;;;;;;5.87;100.00;99441.97;5017750;28;20016;-58
2023/02/20 07:19:24;;;;;;;;;;;;;;;5.86;100.00;99439.38;5017589;28;20388;-59
2023/02/20 07:21:50;;;;;;;;;;;;;;;5.78;100.00;99436.72;5017312;28;20654;-60
2023/02/20 07:24:15;;;;;;;;;;;;;;;5.72;100.00;99421.41;5019107;28;20055;-59
2023/02/20 07:26:41;;;;;;;;;;;;;;;5.73;100.00;99420.53;5017990;28;19983;-60
2023/02/20 07:29:07;;;;;;;;;;;;;;;5.62;100.00;99416.16;5018482;28;19975;-60
2023/02/20 07:31:32;;;;;;;;;;;;;;;5.61;100.00;99417.00;5017984;28;19925;-58
2023/02/20 07:33:58;;;;;;;;;;;;;;;5.53;100.00;99425.38;5017332;28;19968;-59
2023/02/20 07:36:23;;;;;;;;;;;;;;;5.59;100.00;99411.91;5019450;28;20019;-60
2023/02/20 07:38:59;;;;;;;;;;;;;;;5.61;100.00;99401.72;5016943;28;20291;-60
2023/02/20 07:41:28;;;;;;;;;;;;;;;5.53;100.00;99399.09;5014902;28;20515;-58
2023/02/20 07:43:54;;;;;;;;;;;;;;;5.55;100.00;99409.28;5019482;28;20140;-59
2023/02/20 07:46:20;;;;;;;;;;;;;;;5.57;100.00;99394.91;5019214;28;19925;-60
2023/02/20 07:48:46;;;;;;;;;;;;;;;5.60;100.00;99402.59;5018730;28;19925;-59
2023/02/20 07:51:11;;;;;;;;;;;;;;;5.67;100.00;99409.44;5018385;28;20293;-60
2023/02/20 07:53:37;;;;;;;;;;;;;;;5.72;100.00;99406.13;5019149;28;20364;-59
2023/02/20 07:56:03;;;;;;;;;;;;;;;5.73;100.00;99404.47;5018415;28;20032;-59
2023/02/20 07:58:29;;;;;;;;;;;;;;;5.83;100.00;99393.53;5018981;28;19930;-61
2023/02/20 08:00:54;;;;;;;;;;;;;;;6.03;100.00;99407.38;5021342;28;19946;-59
2023/02/20 08:03:20;;;;;;;;;;;;;;;6.19;100.00;99396.56;5018905;28;20241;-60
2023/02/20 08:05:45;;;;;;;;;;;;;;;6.30;100.00;99379.69;5022091;28;19972;-60
2023/02/20 08:08:11;;;;;;;;;;;;;;;6.55;100.00;99385.00;5021102;28;20322;-57
2023/02/20 08:10:36;;;;;;;;;;;;;;;6.65;100.00;99389.34;5012631;28;20349;-59
2023/02/20 08:13:02;;;;;;;;;;;;;;;6.85;100.00;99375.94;5001964;28;19929;-59
2023/02/20 08:15:27;;;;;;;;;;;;;;;7.20;100.00;99370.22;5017230;28;20005;-60
2023/02/20 08:17:53;;;;;;;;;;;;;;;7.59;100.00;99362.78;5016679;28;20733;-57
2023/02/20 08:20:19;;;;;;;;;;;;;;;8.71;100.00;99375.00;5017021;28;19928;-57
2023/02/20 08:22:45;;;;;;;;;;;;;;;9.25;100.00;99370.72;5015560;28;19936;-57
2023/02/20 08:25:11;;;;;;;;;;;;;;;9.47;100.00;99375.78;5015984;28;20421;-59
2023/02/20 08:27:40;;;;;;;;;;;;;;;9.61;100.00;99376.59;5014426;28;19961;-59
2023/02/20 08:30:06;;;;;;;;;;;;;;;9.71;100.00;99379.13;5025929;28;19944;-60
2023/02/20 08:32:31;;;;;;;;;;;;;;;9.86;100.00;99384.19;5012893;28;19955;-58
2023/02/20 08:34:57;;;;;;;;;;;;;;;9.90;100.00;99376.47;5014932;28;19929;-58
2023/02/20 08:37:22;;;;;;;;;;;;;;;10.02;100.00;99365.31;5018266;28;20063;-57
2023/02/20 08:39:48;;;;;;;;;;;;;;;10.07;100.00;99368.72;5000806;28;19956;-58
2023/02/20 08:42:14;;;;;;;;;;;;;;;10.09;100.00;99372.13;5016256;28;19935;-57
2023/02/20 08:44:40;;;;;;;;;;;;;;;10.14;100.00;99367.84;5015907;28;19929;-60
2023/02/20 08:47:05;;;;;;;;;;;;;;;10.16;100.00;99375.53;5013784;28;19933;-59
2023/02/20 08:49:31;;;;;;;;;;;;;;;10.35;100.00;99361.75;5016761;28;19932;-58
2023/02/20 08:51:57;;;;;;;;;;;;;;;10.47;100.00;99364.25;5019746;28;19936;-60
2023/02/20 08:54:22;;;;;;;;;;;;;;;10.60;100.00;99358.16;5020151;28;20023;-60
2023/02/20 08:56:48;;;;;;;;;;;;;;;10.80;100.00;99369.13;5020484;28;19930;-60
2023/02/20 08:59:14;;;;;;;;;;;;;;;10.72;100.00;99365.75;5022321;28;19929;-60
2023/02/20 09:01:41;;;;;;;;;;;;;;;10.67;100.00;99356.41;5021990;28;19936;-61
2023/02/20 09:04:14;;;;;;;;;;;;;;;10.65;100.00;99353.81;5022610;28;20054;-61
2023/02/20 09:06:40;;;;;;;;;;;;;;;10.55;100.00;99349.66;5021390;28;19936;-55
2023/02/20 09:09:07;;;;;;;;;;;;;;;10.56;100.00;99351.34;5020776;28;19925;-60
2023/02/20 09:11:33;;;;;;;;;;;;;;;10.52;100.00;99347.94;5021711;28;19968;-60
2023/02/20 09:13:58;;;;;;;;;;;;;;;10.61;100.00;99331.63;5020564;28;19942;-61
2023/02/20 09:16:24;;;;;;;;;;;;;;;10.72;100.00;99324.72;5019579;28;19956;-61
2023/02/20 09:18:50;;;;;;;;;;;;;;;10.84;100.00;99324.63;5023155;28;19933;-59
2023/02/20 09:21:18;;;;;;;;;;;;;;;10.93;100.00;99316.84;5022082;28;19933;-60
2023/02/20 09:23:44;;;;;;;;;;;;;;;11.04;100.00;99324.41;5022644;28;20027;-59
2023/02/20 09:26:09;;;;;;;;;;;;;;;10.99;100.00;99332.16;5021031;28;20179;-59
2023/02/20 09:28:35;;;;;;;;;;;;;;;11.22;100.00;99331.09;5018111;28;19990;-58
2023/02/20 09:31:01;;;;;;;;;;;;;;;11.23;100.00;99315.69;5020985;28;20377;-57
2023/02/20 09:33:27;;;;;;;;;;;;;;;11.07;100.00;99334.69;5019633;28;20475;-58
2023/02/20 09:35:53;;;;;;;;;;;;;;;11.04;100.00;99328.69;5034814;28;19925;-58
2023/02/20 09:38:19;;;;;;;;;;;;;;;11.15;100.00;99329.47;5017820;28;20417;-58
2023/02/20 09:40:47;;;;;;;;;;;;;;;11.13;99.56;99341.44;5018370;28;19961;-57
2023/02/20 09:43:32;;;;;;;;;;;;;;;11.22;99.09;99336.22;5022956;28;19929;-57
2023/02/20 09:46:20;;;;;;;;;;;;;;;11.27;98.29;99324.19;5021121;28;20447;-60
2023/02/20 09:48:49;;;;;;;;;;;;;;;11.34;97.17;99300.16;5021356;28;19983;-60
2023/02/20 09:51:16;;;;;;;;;;;;;;;11.48;98.31;99308.56;5023212;28;20288;-59
2023/02/20 09:53:48;;;;;;;;;;;;;;;11.46;97.75;99300.00;5018653;28;19925;-60
2023/02/20 09:56:19;;;;;;;;;;;;;;;11.42;95.00;99303.47;5020495;28;19971;-61
2023/02/20 09:58:48;;;;;;;;;;;;;;;11.47;98.11;99294.00;5019836;28;19931;-59
2023/02/20 10:01:17;;;;;;;;;;;;;;;11.44;99.91;99304.31;5020611;28;19924;-61
2023/02/20 10:04:01;;;;;;;;;;;;;;;11.44;99.08;99299.19;5019099;28;19956;-61
2023/02/20 10:06:28;;;;;;;;;;;;;;;11.49;95.85;99299.13;5017398;28;19978;-61
2023/02/20 10:08:54;;;;;;;;;;;;;;;11.43;95.84;99292.34;5007146;28;20006;-61
2023/02/20 10:11:26;;;;;;;;;;;;;;;11.48;96.29;99287.16;5034953;28;19926;-61
2023/02/20 10:13:58;;;;;;;;;;;;;;;11.36;94.23;99288.16;5037092;28;19936;-60
2023/02/20 10:16:35;;;;;;;;;;;;;;;11.36;96.79;99294.16;5021981;28;20353;-60
2023/02/20 10:19:04;;;;;;;;;;;;;;;11.26;96.11;99291.69;5021313;28;19929;-61
2023/02/20 10:21:56;;;;;;;;;;;;;;;11.24;93.45;99324.25;5023145;28;19933;-60
2023/02/20 10:24:27;;;;;;;;;;;;;;;11.30;92.42;99304.47;4962322;28;19945;-61
2023/02/20 10:26:56;;;;;;;;;;;;;;;11.37;93.27;99293.25;4963644;28;20108;-60
2023/02/20 10:29:24;;;;;;;;;;;;;;;11.30;91.70;99285.66;4964042;28;19930;-60
2023/02/20 10:31:58;;;;;;;;;;;;;;;11.40;91.72;99259.88;4961446;28;20447;-61
2023/02/20 10:34:26;;;;;;;;;;;;;;;11.55;92.15;99251.09;4963995;28;19925;-60
2023/02/20 10:36:54;;;;;;;;;;;;;;;11.55;87.32;99251.09;4962272;28;20477;-61
2023/02/20 10:39:20;;;;;;;;;;;;;;;11.66;88.56;99256.97;4961086;28;20399;-60
2023/02/20 10:42:02;;;;;;;;;;;;;;;11.92;89.29;99245.50;4963547;28;19961;-60
2023/02/20 10:44:46;;;;;;;;;;;;;;;12.02;89.42;99244.50;4961189;28;20266;-59
2023/02/20 10:47:14;;;;;;;;;;;;;;;12.07;89.90;99235.84;4960236;28;19926;-61
2023/02/20 10:49:48;;;;;;;;;;;;;;;12.02;88.21;99234.22;4962852;28;20528;-60
2023/02/20 10:52:17;;;;;;;;;;;;;;;12.07;87.97;99220.44;4963629;28;20391;-60
2023/02/20 10:54:46;;;;;;;;;;;;;;;12.11;86.19;99213.50;4964631;28;19926;-61
2023/02/20 10:57:21;;;;;;;;;;;;;;;12.18;87.06;99215.09;4964229;28;20393;-61
2023/02/20 10:59:58;;;;;;;;;;;;;;;12.06;86.69;99216.16;4961258;28;19941;-60
2023/02/20 11:02:26;;;;;;;;;;;;;;;12.16;84.24;99212.56;5016879;28;20020;-60
2023/02/20 11:04:58;;;;;;;;;;;;;;;12.17;85.47;99210.84;5003535;28;20039;-61
2023/02/20 11:07:25;;;;;;;;;;;;;;;12.20;84.91;99206.50;5022942;28;19925;-61
2023/02/20 11:09:50;;;;;;;;;;;;;;;12.31;85.25;99196.88;5018102;28;19956;-61
2023/02/20 11:12:28;;;;;;;;;;;;;;;12.42;83.48;99193.28;5017276;28;19929;-61
2023/02/20 11:14:58;;;;;;;;;;;;;;;12.43;78.63;99192.44;5018917;28;20023;-61
2023/02/20 11:17:25;;;;;;;;;;;;;;;12.59;78.78;99186.97;5035025;28;19986;-61
2023/02/20 11:19:52;;;;;;;;;;;;;;;12.67;79.75;99169.69;5023000;28;19925;-61
2023/02/20 11:22:36;;;;;;;;;;;;;;;12.64;77.45;99171.47;5020547;28;19924;-61
2023/02/20 11:25:25;;;;;;;;;;;;;;;12.63;78.44;99170.63;5019568;28;19932;-62
2023/02/20 11:27:52;;;;;;;;;;;;;;;12.96;77.10;99166.53;5020969;28;19931;-61
2023/02/20 11:30:17;;;;;;;;;;;;;;;13.11;72.50;99158.53;5033848;28;19926;-62
2023/02/20 11:32:43;;;;;;;;;;;;;;;13.43;70.89;99159.56;5014467;28;19925;-61
2023/02/20 11:35:15;;;;;;;;;;;;;;;13.55;66.96;99161.88;5019877;28;19936;-61
2023/02/20 11:37:41;;;;;;;;;;;;;;;13.69;71.73;99154.69;5021340;28;19925;-61
2023/02/20 11:40:25;;;;;;;;;;;;;;;13.83;69.72;99149.22;5004100;28;20371;-61
2023/02/20 11:42:50;;;;;;;;;;;;;;;13.74;66.25;99147.69;5016865;28;19929;-61
2023/02/20 11:45:22;;;;;;;;;;;;;;;13.63;60.80;99149.66;5018699;28;19964;-61
2023/02/20 11:48:05;;;;;;;;;;;;;;;13.51;63.71;99145.63;5017705;28;20574;-62
2023/02/20 11:50:37;;;;;;;;;;;;;;;13.54;62.79;99139.56;5017764;28;19971;-61
2023/02/20 11:53:04;;;;;;;;;;;;;;;13.41;66.25;99139.00;5019337;28;20350;-61
2023/02/20 11:55:30;;;;;;;;;;;;;;;13.29;61.45;99128.97;5019717;28;20525;-61
2023/02/20 11:57:55;;;;;;;;;;;;;;;13.25;64.61;99142.78;5020880;28;20013;-60
2023/02/20 12:00:25;;;;;;;;;;;;;;;13.31;61.50;99137.53;5020194;28;19929;-61
2023/02/20 12:02:55;;;;;;;;;;;;;;;13.32;62.32;99138.38;5017924;28;20296;-61
2023/02/20 12:05:34;;;;;;;;;;;;;;;13.26;58.89;99132.47;5019558;28;20000;-61
2023/02/20 12:08:00;;;;;;;;;;;;;;;13.24;59.30;99141.09;5019409;28;20391;-60
2023/02/20 12:10:25;;;;;;;;;;;;;;;13.32;58.45;99134.06;5020260;28;20019;-60
2023/02/20 12:12:51;;;;;;;;;;;;;;;13.35;60.31;99128.84;5019145;28;19931;-60
2023/02/20 12:15:18;;;;;;;;;;;;;;;13.55;61.58;99121.50;5005669;28;19925;-60
2023/02/20 12:18:03;;;;;;;;;;;;;;;13.54;61.00;99119.81;5021391;28;19921;-61
2023/02/20 12:20:29;;;;;;;;;;;;;;;13.54;57.41;99104.34;5021330;28;19925;-61
2023/02/20 12:23:04;;;;;;;;;;;;;;;13.61;56.88;99098.19;5019719;28;19987;-66
2023/02/20 12:25:30;;;;;;;;;;;;;;;13.71;57.01;99093.63;5010108;28;19925;-61
2023/02/20 12:28:08;;;;;;;;;;;;;;;13.62;56.81;99086.16;5019145;28;20014;-59
2023/02/20 12:30:48;;;;;;;;;;;;;;;13.48;54.49;99083.03;5021215;28;20003;-60
2023/02/20 12:33:31;;;;;;;;;;;;;;;13.54;57.52;99083.75;5020046;28;19925;-61
2023/02/20 12:36:06;;;;;;;;;;;;;;;13.57;56.75;99088.00;5020078;28;20408;-61
2023/02/20 12:38:35;;;;;;;;;;;;;;;13.69;55.07;99070.50;5021146;28;20012;-60
2023/02/20 12:41:20;;;;;;;;;;;;;;;13.85;53.98;99077.84;5018258;28;19953;-60
2023/02/20 12:44:01;;;;;;;;;;;;;;;14.03;53.67;99075.66;5008936;28;20023;-63
2023/02/20 12:46:34;;;;;;;;;;;;;;;14.15;53.16;99056.44;5022269;28;19925;-61
2023/02/20 12:48:59;;;;;;;;;;;;;;;14.23;51.65;99046.75;5020836;28;20011;-59
2023/02/20 12:51:35;;;;;;;;;;;;;;;14.35;53.51;99049.03;5020185;28;19925;-61
2023/02/20 12:54:04;;;;;;;;;;;;;;;14.49;53.82;99046.94;5019385;28;20277;-60
2023/02/20 12:56:40;;;;;;;;;;;;;;;14.61;52.14;99025.09;5019717;28;19925;-61
2023/02/20 12:59:26;;;;;;;;;;;;;;;14.73;53.36;99023.88;5014246;28;19929;-61
2023/02/20 13:01:52;;;;;;;;;;;;;;;14.64;53.21;99009.50;5019290;28;20313;-61
2023/02/20 13:04:56;;;;;;;;;;;;;;;14.66;50.80;99012.03;5022018;28;19991;-61
2023/02/20 13:07:41;;;;;;;;;;;;;;;14.45;50.02;98998.88;4978755;28;19957;-61